X  Zatvori METAR podaci zračne luke     LGRX Patras Araxos Agamemnon Airport
Temperatura
16°C Temperatura
10°C Točka rosišta
68% Vlaga



Vjetar
11 KM/S
7 MPS
3 M/S
6 Čvorovi



40°
SI
Trenutna situacija

Djelimično oblačno Djelimično oblačno
Tlak zraka 1007.79 (hPa) - 29.76 (inHg)
Vidljivost 6 (milje) - 9.7 (km)
Zračna luka
Kôd zračne luke LGRX

Lokacija: Patras Araxos Agamemnon Airport
Udaljenost: 41 (km)

Metar:
LGRX 010050Z 04006KT 9999 FEW025 BKN080 16/10 Q1008 RMK OVC180 BLU

Vrijeme: 01-03-2024 02:50 EET